Time;durP1;ratioP1;P1;durP2;ratioP2;P2;SDS_P1;SDS_P2;PMS_P1;PMS_P2;Temp;Humidity;BMP_temperature;BMP_pressure;BME280_temperature;BME280_humidity;BME280_pressure;Samples;Min_cycle;Max_cycle;Signal;HPM_P1;HPM_P2
2022/10/12 00:01:36;;;;;;;6.70;2.80;;;;;;;13.92;nan;100135.91;4977988;28;20212;-76
2022/10/12 00:04:01;;;;;;;6.90;2.30;;;;;;;13.89;nan;100133.50;4979502;28;20309;-76
2022/10/12 00:06:26;;;;;;;2.37;1.93;;;;;;;13.86;nan;100128.44;4980434;28;20784;-76
2022/10/12 00:08:53;;;;;;;4.60;2.87;;;;;;;13.84;nan;100123.22;4981134;28;20191;-76
2022/10/12 00:11:22;;;;;;;7.78;2.97;;;;;;;13.82;nan;100133.03;4980432;28;20208;-76
2022/10/12 00:13:48;;;;;;;6.80;2.92;;;;;;;13.79;nan;100127.97;4976983;28;21099;-76
2022/10/12 00:16:15;;;;;;;2.90;2.40;;;;;;;13.79;nan;100130.63;4980787;28;20718;-76
2022/10/12 00:18:41;;;;;;;2.80;2.33;;;;;;;13.80;nan;100134.09;4981452;28;20193;-76
2022/10/12 00:21:10;;;;;;;5.07;2.20;;;;;;;13.82;nan;100134.84;4979766;28;20524;-76
2022/10/12 00:23:36;;;;;;;4.07;2.42;;;;;;;13.83;nan;100139.19;4978287;28;20250;-76
2022/10/12 00:26:07;;;;;;;6.60;3.20;;;;;;;13.83;nan;100133.91;4981713;28;20210;-76
2022/10/12 00:28:33;;;;;;;13.00;2.63;;;;;;;13.80;nan;100132.34;4979502;28;20196;-76
2022/10/12 00:30:59;;;;;;;4.57;1.98;;;;;;;13.79;nan;100129.78;4979711;28;20212;-76
2022/10/12 00:33:27;;;;;;;6.23;2.43;;;;;;;13.79;nan;100127.97;4980180;28;20233;-76
2022/10/12 00:35:53;;;;;;;7.40;2.42;;;;;;;13.79;nan;100129.78;4979249;28;20233;-76
2022/10/12 00:38:20;;;;;;;4.88;2.58;;;;;;;13.79;nan;100130.63;4979399;28;20239;-76
2022/10/12 00:40:46;;;;;;;7.40;3.05;;;;;;;13.80;nan;100132.34;4976171;28;20667;-76
2022/10/12 00:43:34;;;;;;;2.95;2.35;;;;;;;13.81;nan;100125.25;4978708;28;20671;-76
2022/10/12 00:46:04;;;;;;;3.78;2.55;;;;;;;13.81;nan;100133.16;4978620;28;20204;-76
2022/10/12 00:48:30;;;;;;;4.47;3.05;;;;;;;13.79;nan;100129.78;4981374;28;20188;-76
2022/10/12 00:51:00;;;;;;;4.70;2.00;;;;;;;13.76;nan;100128.19;4634714;28;10010429;-75
2022/10/12 00:53:30;;;;;;;2.13;1.80;;;;;;;13.76;nan;100130.00;4979482;28;20274;-76
2022/10/12 00:56:02;;;;;;;6.05;2.60;;;;;;;13.75;nan;100130.97;4976935;28;20211;-76
2022/10/12 00:58:31;;;;;;;5.15;2.22;;;;;;;13.75;nan;100136.25;4980459;28;20234;-76
2022/10/12 01:01:01;;;;;;;5.07;2.72;;;;;;;13.69;nan;100132.19;4977862;28;20339;-76
2022/10/12 01:03:31;;;;;;;5.68;2.85;;;;;;;13.64;nan;100131.69;4978669;28;20540;-75
2022/10/12 01:05:57;;;;;;;6.10;2.72;;;;;;;13.63;nan;100135.25;4980056;28;20251;-76
2022/10/12 01:08:23;;;;;;;5.93;2.28;;;;;;;13.64;nan;100131.69;4980367;28;20204;-76
2022/10/12 01:10:48;;;;;;;3.47;2.60;;;;;;;13.64;nan;100139.63;4979031;28;20476;-76
2022/10/12 01:13:14;;;;;;;4.80;2.53;;;;;;;13.63;nan;100133.47;4979857;28;20249;-76
2022/10/12 01:15:50;;;;;;;2.93;2.40;;;;;;;13.65;nan;100130.72;4977188;28;20196;-75
2022/10/12 01:18:28;;;;;;;5.35;3.10;;;;;;;13.67;nan;100137.59;4982179;28;20477;-76
2022/10/12 01:21:12;;;;;;;2.90;2.30;;;;;;;13.69;nan;100129.56;4981252;28;20184;-76
2022/10/12 01:24:28;;;;;;;8.73;2.20;;;;;;;13.70;nan;100140.03;4983863;28;20219;-76
2022/10/12 01:27:13;;;;;;;4.50;3.53;;;;;;;13.70;nan;100141.81;4980464;28;20472;-76
2022/10/12 01:30:00;;;;;;;3.85;2.83;;;;;;;13.66;nan;100135.03;4983308;28;20249;-76
2022/10/12 01:32:43;;;;;;;5.65;2.85;;;;;;;13.64;nan;100137.81;4985006;28;20200;-76
2022/10/12 01:35:36;;;;;;;5.22;2.95;;;;;;;13.65;nan;100142.13;4980703;28;20227;-76
2022/10/12 01:39:02;;;;;;;4.78;2.53;;;;;;;13.65;nan;100133.38;4972074;28;20240;-76
2022/10/12 01:41:35;;;;;;;5.30;2.70;;;;;;;13.65;nan;100126.28;4922220;29;20195;-76
2022/10/12 01:44:01;;;;;;;5.30;2.90;;;;;;;13.68;nan;100130.50;4973688;28;20230;-75
2022/10/12 01:46:26;;;;;;;5.43;2.80;;;;;;;13.69;nan;100119.00;4981306;28;20239;-76
2022/10/12 01:48:58;;;;;;;7.83;2.67;;;;;;;13.70;nan;100118.06;4982470;28;20287;-76
2022/10/12 01:51:32;;;;;;;8.50;2.00;;;;;;;13.70;nan;100129.47;4983232;28;20220;-76
2022/10/12 01:54:07;;;;;;;6.47;3.10;;;;;;;13.71;nan;100127.66;4982122;28;20224;-76
2022/10/12 01:56:42;;;;;;;4.32;2.75;;;;;;;13.70;nan;100124.19;4980123;28;20307;-76
2022/10/12 01:59:34;;;;;;;5.20;3.25;;;;;;;13.71;nan;100130.31;4983758;28;20208;-76
2022/10/12 02:02:14;;;;;;;6.55;2.97;;;;;;;13.68;nan;100134.00;4951752;28;20251;-76
2022/10/12 02:04:48;;;;;;;8.80;4.00;;;;;;;13.71;nan;100128.50;4981772;28;20526;-76
2022/10/12 02:07:24;;;;;;;6.88;3.33;;;;;;;13.69;nan;100129.56;4980149;28;20205;-76
2022/10/12 02:09:53;;;;;;;6.88;3.60;;;;;;;13.69;nan;100119.00;4978531;28;20204;-76
2022/10/12 02:12:22;;;;;;;7.95;5.38;;;;;;;13.66;nan;100135.91;4982793;28;20518;-76
2022/10/12 02:14:53;;;;;;;5.97;3.70;;;;;;;13.63;nan;100128.19;4982558;28;20189;-76
2022/10/12 02:17:21;;;;;;;5.80;3.53;;;;;;;13.59;nan;100129.34;4978208;28;20611;-76
2022/10/12 02:19:52;;;;;;;8.15;3.90;;;;;;;13.54;nan;100127.97;4981347;28;20190;-76
2022/10/12 02:22:18;;;;;;;6.18;4.50;;;;;;;13.54;nan;100122.69;4982185;28;20192;-76
2022/10/12 02:24:47;;;;;;;9.45;4.05;;;;;;;13.50;nan;100120.28;4982388;28;20205;-76
2022/10/12 02:27:21;;;;;;;5.25;3.88;;;;;;;13.50;nan;100122.91;4977335;28;20209;-77
2022/10/12 02:29:48;;;;;;;9.85;5.38;;;;;;;13.51;nan;100113.19;4980236;28;20201;-77
2022/10/12 02:32:23;;;;;;;10.00;4.70;;;;;;;13.50;nan;100119.41;4981849;28;20201;-77
2022/10/12 02:35:16;;;;;;;7.32;3.60;;;;;;;13.45;nan;100113.63;4980780;28;20193;-77
2022/10/12 02:37:45;;;;;;;4.68;3.70;;;;;;;13.40;nan;100119.19;4977074;28;20320;-77
2022/10/12 02:40:32;;;;;;;8.00;3.85;;;;;;;13.38;nan;100118.44;4980655;28;20193;-77
2022/10/12 02:43:14;;;;;;;8.32;5.43;;;;;;;13.31;nan;100117.16;4982160;28;20231;-77
2022/10/12 02:45:42;;;;;;;6.97;3.47;;;;;;;13.31;nan;100114.53;4982928;28;20203;-77
2022/10/12 02:48:12;;;;;;;9.77;4.68;;;;;;;13.30;nan;100112.84;4979647;28;20762;-77
2022/10/12 02:50:41;;;;;;;9.25;4.22;;;;;;;13.33;nan;100115.28;4981193;28;20287;-77
2022/10/12 02:53:07;;;;;;;8.00;3.55;;;;;;;13.37;nan;100108.00;4980908;28;20514;-77
2022/10/12 02:55:37;;;;;;;9.15;4.13;;;;;;;13.44;nan;100118.03;4982431;28;20211;-77
2022/10/12 02:58:03;;;;;;;7.72;4.05;;;;;;;13.51;nan;100107.91;4977744;28;20180;-77
2022/10/12 03:00:32;;;;;;;5.30;4.13;;;;;;;13.54;nan;100112.16;4982232;28;20192;-77
2022/10/12 03:02:58;;;;;;;10.65;4.95;;;;;;;13.54;nan;100102.44;4979742;28;20176;-77
2022/10/12 03:05:23;;;;;;;10.87;5.87;;;;;;;13.54;nan;100114.78;4980214;28;20534;-77
2022/10/12 03:07:48;;;;;;;7.90;6.57;;;;;;;13.52;nan;100109.59;4979261;28;20322;-77
2022/10/12 03:10:14;;;;;;;7.97;5.00;;;;;;;13.52;nan;100121.94;4981427;28;20214;-77
2022/10/12 03:12:41;;;;;;;14.05;6.18;;;;;;;13.52;nan;100109.59;4981615;28;20491;-77
2022/10/12 03:15:07;;;;;;;13.87;5.87;;;;;;;13.51;nan;100118.47;4981217;28;20533;-77
2022/10/12 03:17:32;;;;;;;9.87;5.40;;;;;;;13.49;nan;100121.19;4980990;28;20283;-77
2022/10/12 03:19:58;;;;;;;12.63;6.43;;;;;;;13.50;nan;100119.41;4981679;28;20211;-77
2022/10/12 03:22:23;;;;;;;14.13;6.40;;;;;;;13.54;nan;100114.78;4981945;28;20196;-77
2022/10/12 03:24:49;;;;;;;17.60;6.37;;;;;;;13.56;nan;100116.38;4979729;28;20230;-77
2022/10/12 03:27:14;;;;;;;16.33;7.47;;;;;;;13.60;nan;100112.56;4979850;28;20288;-77
2022/10/12 03:29:39;;;;;;;19.70;8.33;;;;;;;13.63;nan;100111.50;4980043;28;20188;-77
2022/10/12 03:32:05;;;;;;;16.47;8.50;;;;;;;13.65;nan;100118.38;4981514;28;20256;-77
2022/10/12 03:34:30;;;;;;;11.93;6.80;;;;;;;13.66;nan;100116.56;4980328;28;20176;-77
2022/10/12 03:36:56;;;;;;;11.30;5.70;;;;;;;13.66;nan;100119.22;4979324;28;20215;-77
2022/10/12 03:39:21;;;;;;;11.57;6.50;;;;;;;13.67;nan;100115.63;4978246;28;21421;-77
2022/10/12 03:41:46;;;;;;;15.20;5.63;;;;;;;13.67;nan;100116.47;4980036;28;20176;-77
2022/10/12 03:44:12;;;;;;;14.40;5.73;;;;;;;13.68;nan;100122.59;4980707;28;20210;-77
2022/10/12 03:46:37;;;;;;;11.27;5.87;;;;;;;13.65;nan;100122.81;4981161;28;20712;-77
2022/10/12 03:49:03;;;;;;;17.60;6.63;;;;;;;13.61;nan;100127.47;4980285;28;20213;-77
2022/10/12 03:51:28;;;;;;;17.73;7.90;;;;;;;13.61;nan;100119.53;4979126;28;20236;-77
2022/10/12 03:53:53;;;;;;;14.53;6.47;;;;;;;13.63;nan;100116.78;4978545;28;20191;-77
2022/10/12 03:56:19;;;;;;;11.50;6.10;;;;;;;13.60;nan;100123.13;4981897;28;20318;-76
2022/10/12 03:58:44;;;;;;;18.43;8.77;;;;;;;13.58;nan;100118.88;4980011;28;20175;-77
2022/10/12 04:01:10;;;;;;;10.23;5.70;;;;;;;13.58;nan;100124.16;4978056;28;20757;-77
2022/10/12 04:03:35;;;;;;;10.73;6.33;;;;;;;13.58;nan;100122.38;4979333;28;20195;-77
2022/10/12 04:06:01;;;;;;;9.47;5.93;;;;;;;13.60;nan;100125.75;4981821;28;20572;-77
2022/10/12 04:08:27;;;;;;;9.20;5.97;;;;;;;13.61;nan;100123.94;4980077;28;20188;-77
2022/10/12 04:10:53;;;;;;;12.02;6.75;;;;;;;13.59;nan;100132.00;4913260;28;20287;-77
2022/10/12 04:13:19;;;;;;;12.37;7.37;;;;;;;13.57;nan;100127.75;4978734;28;20200;-77
2022/10/12 04:15:45;;;;;;;14.07;6.18;;;;;;;13.54;nan;100126.19;4981279;28;20216;-77
2022/10/12 04:18:10;;;;;;;12.87;6.37;;;;;;;13.55;nan;100127.03;4976564;28;20188;-77
2022/10/12 04:20:36;;;;;;;13.50;6.20;;;;;;;13.54;nan;100131.47;4979168;28;20476;-77
2022/10/12 04:23:02;;;;;;;14.50;7.23;;;;;;;13.54;nan;100134.09;4981787;28;20474;-77
2022/10/12 04:25:27;;;;;;;8.07;4.63;;;;;;;13.54;nan;100131.47;4980537;28;20250;-77
2022/10/12 04:27:52;;;;;;;8.63;5.03;;;;;;;13.58;nan;100134.72;4978826;28;20250;-77
2022/10/12 04:30:18;;;;;;;15.60;6.80;;;;;;;13.60;nan;100135.47;4981543;28;20204;-77
2022/10/12 04:32:44;;;;;;;17.37;7.50;;;;;;;13.61;nan;100134.50;4979342;28;20560;-78
2022/10/12 04:35:09;;;;;;;11.90;6.50;;;;;;;13.61;nan;100132.75;4978269;28;20183;-77
2022/10/12 04:37:35;;;;;;;18.57;7.70;;;;;;;13.62;nan;100134.41;4988038;23;20828;-80
2022/10/12 04:40:00;;;;;;;14.57;8.07;;;;;;;13.61;nan;100140.66;4974326;28;20179;-80
2022/10/12 04:42:26;;;;;;;15.40;6.60;;;;;;;13.62;nan;100138.88;4987583;28;20481;-80
2022/10/12 04:44:51;;;;;;;13.47;6.03;;;;;;;13.62;nan;100130.94;4991407;28;20276;-80
2022/10/12 04:47:16;;;;;;;16.03;8.20;;;;;;;13.61;nan;100135.38;4981237;28;20543;-80
2022/10/12 04:49:42;;;;;;;17.00;7.67;;;;;;;13.58;nan;100132.91;4980759;28;20310;-80
2022/10/12 04:52:07;;;;;;;10.53;6.73;;;;;;;13.55;nan;100138.41;4979005;28;20191;-80
2022/10/12 04:54:32;;;;;;;12.50;6.23;;;;;;;13.53;nan;100144.75;4980435;28;20192;-80
2022/10/12 04:56:58;;;;;;;13.03;6.57;;;;;;;13.49;nan;100134.41;4979781;28;20211;-82
2022/10/12 04:59:23;;;;;;;16.60;6.20;;;;;;;13.48;nan;100137.16;4980326;28;20278;-80
2022/10/12 05:01:49;;;;;;;14.40;6.97;;;;;;;13.45;nan;100135.56;4973723;28;20607;-80
2022/10/12 05:04:15;;;;;;;16.13;7.70;;;;;;;13.44;nan;100133.84;4955815;28;20642;-80
2022/10/12 05:06:40;;;;;;;12.00;6.80;;;;;;;13.43;nan;100137.47;4975257;28;20287;-80
2022/10/12 05:09:05;;;;;;;16.37;6.57;;;;;;;13.43;nan;100131.34;4976851;28;20188;-80
2022/10/12 05:11:31;;;;;;;12.90;6.00;;;;;;;13.42;nan;100132.28;4975098;28;20199;-80
2022/10/12 05:13:56;;;;;;;11.90;8.33;;;;;;;13.43;nan;100134.81;4972956;28;20223;-80
2022/10/12 05:16:22;;;;;;;22.53;7.77;;;;;;;13.42;nan;100129.63;4972853;28;20214;-80
2022/10/12 05:18:47;;;;;;;14.27;6.53;;;;;;;13.42;nan;100127.00;4973400;28;20194;-80
2022/10/12 05:21:13;;;;;;;11.43;6.47;;;;;;;13.41;nan;100134.06;4976491;28;20287;-80
2022/10/12 05:23:38;;;;;;;12.67;7.00;;;;;;;13.41;nan;100130.59;4975889;28;20188;-80
2022/10/12 05:26:04;;;;;;;19.70;8.13;;;;;;;13.41;nan;100136.72;4975687;28;20580;-80
2022/10/12 05:28:29;;;;;;;14.17;7.60;;;;;;;13.42;nan;100135.78;4974242;28;20846;-80
2022/10/12 05:30:55;;;;;;;12.00;7.30;;;;;;;13.43;nan;100129.53;4971603;28;20183;-80
2022/10/12 05:33:20;;;;;;;17.13;7.40;;;;;;;13.45;nan;100132.94;4977499;28;20258;-80
2022/10/12 05:35:47;;;;;;;15.07;7.60;;;;;;;13.45;nan;100132.94;4955850;28;20603;-80
2022/10/12 05:38:13;;;;;;;18.88;6.85;;;;;;;13.46;nan;100131.97;4974560;28;20180;-80
2022/10/12 05:40:38;;;;;;;12.60;7.30;;;;;;;13.49;nan;100138.84;4973934;28;20223;-80
2022/10/12 05:43:03;;;;;;;14.47;7.23;;;;;;;13.50;nan;100129.97;4971394;28;20188;-80
2022/10/12 05:45:29;;;;;;;16.20;6.87;;;;;;;13.50;nan;100146.66;4972849;28;20263;-80
2022/10/12 05:47:54;;;;;;;13.47;8.93;;;;;;;13.49;nan;100139.69;4971635;28;20188;-80
2022/10/12 05:50:20;;;;;;;28.33;11.60;;;;;;;13.48;nan;100138.00;4974088;28;20246;-80
2022/10/12 05:52:46;;;;;;;24.73;8.13;;;;;;;13.48;nan;100142.44;4974871;28;20641;-80
2022/10/12 05:55:11;;;;;;;8.23;5.57;;;;;;;13.48;nan;100143.28;4971960;28;20188;-81
2022/10/12 05:57:37;;;;;;;14.07;7.40;;;;;;;13.50;nan;100141.38;4973681;28;20203;-80
2022/10/12 06:00:07;;;;;;;11.57;6.37;;;;;;;13.52;nan;100145.69;4972948;28;20265;-80
2022/10/12 06:02:35;;;;;;;16.83;8.30;;;;;;;13.52;nan;100143.06;4975436;28;20652;-80
2022/10/12 06:05:01;;;;;;;15.43;9.20;;;;;;;13.54;nan;100146.44;4971041;28;20223;-80
2022/10/12 06:07:26;;;;;;;27.73;10.90;;;;;;;13.57;nan;100138.31;4973727;28;20471;-80
2022/10/12 06:09:52;;;;;;;22.43;9.50;;;;;;;13.59;nan;100142.56;4980099;28;20282;-80
2022/10/12 06:12:18;;;;;;;18.97;9.30;;;;;;;13.61;nan;100138.03;4975762;28;20464;-80
2022/10/12 06:14:44;;;;;;;21.55;10.52;;;;;;;13.62;nan;100142.34;4977667;28;20566;-81
2022/10/12 06:17:10;;;;;;;25.17;9.97;;;;;;;13.62;nan;100144.97;4982023;28;20569;-80
2022/10/12 06:19:35;;;;;;;17.77;9.53;;;;;;;13.63;nan;100140.53;4982185;28;20188;-80
2022/10/12 06:22:01;;;;;;;18.23;9.13;;;;;;;13.64;nan;100139.63;4984272;28;20666;-80
2022/10/12 06:24:26;;;;;;;20.07;10.30;;;;;;;13.63;nan;100141.38;4977552;28;20254;-80
2022/10/12 06:26:51;;;;;;;23.00;9.93;;;;;;;13.60;nan;100146.03;4975692;28;20204;-82
2022/10/12 06:29:17;;;;;;;23.60;10.10;;;;;;;13.57;nan;100143.59;4979191;28;20408;-82
2022/10/12 06:31:43;;;;;;;23.83;11.30;;;;;;;13.57;nan;100136.53;4974136;28;20293;-82
2022/10/12 06:34:08;;;;;;;22.63;11.30;;;;;;;13.57;nan;100135.69;4978495;28;20194;-82
2022/10/12 06:36:34;;;;;;;24.93;11.93;;;;;;;13.56;nan;100134.00;4976515;28;20231;-82
2022/10/12 06:38:59;;;;;;;20.83;8.87;;;;;;;13.55;nan;100135.78;4978544;28;20202;-82
2022/10/12 06:41:24;;;;;;;18.47;10.93;;;;;;;13.58;nan;100138.19;4979043;28;20412;-82
2022/10/12 06:43:50;;;;;;;23.93;11.40;;;;;;;13.60;nan;100138.13;4976282;28;20298;-82
2022/10/12 06:46:15;;;;;;;19.70;11.23;;;;;;;13.61;nan;100132.75;4975933;28;20784;-80
2022/10/12 06:48:41;;;;;;;27.23;12.57;;;;;;;13.65;nan;100126.28;4976897;28;20200;-79
2022/10/12 06:51:06;;;;;;;24.80;10.37;;;;;;;13.70;nan;100132.09;4975922;28;20212;-80
2022/10/12 06:53:33;;;;;;;19.00;11.00;;;;;;;13.72;nan;100130.22;4974036;28;20636;-79
2022/10/12 06:56:05;;;;;;;21.88;12.18;;;;;;;13.77;nan;100135.19;4974541;28;20234;-79
2022/10/12 06:58:30;;;;;;;18.33;9.73;;;;;;;13.80;nan;100131.47;4972504;28;20507;-79
2022/10/12 07:00:55;;;;;;;19.03;10.50;;;;;;;13.84;nan;100133.78;4976441;28;20243;-79
2022/10/12 07:03:21;;;;;;;19.03;9.50;;;;;;;13.89;nan;100136.13;4976360;28;20644;-79
2022/10/12 07:05:46;;;;;;;15.87;8.97;;;;;;;13.92;nan;100134.13;4977207;28;20624;-79
2022/10/12 07:08:12;;;;;;;21.10;9.37;;;;;;;14.00;nan;100132.75;4958646;28;20195;-79
2022/10/12 07:10:37;;;;;;;20.67;9.43;;;;;;;14.03;nan;100129.88;4978482;28;20444;-82
2022/10/12 07:13:03;;;;;;;17.90;10.07;;;;;;;14.09;nan;100135.56;4980106;28;20226;-81
2022/10/12 07:15:28;;;;;;;24.13;13.10;;;;;;;14.14;nan;100130.81;4982793;28;20195;-81
2022/10/12 07:17:54;;;;;;;19.03;9.90;;;;;;;14.15;nan;100131.69;4985444;28;20696;-82
2022/10/12 07:20:19;;;;;;;14.30;9.67;;;;;;;14.18;nan;100136.75;4975660;28;20215;-81
2022/10/12 07:22:44;;;;;;;21.43;10.27;;;;;;;14.20;nan;100131.34;4985683;28;20200;-82
2022/10/12 07:25:10;;;;;;;22.80;10.90;;;;;;;14.15;nan;100140.44;4985567;28;20188;-81
2022/10/12 07:27:35;;;;;;;19.73;10.13;;;;;;;14.15;nan;100137.81;4984013;28;20212;-81
2022/10/12 07:30:01;;;;;;;18.13;12.30;;;;;;;14.19;nan;100146.34;4983928;28;20279;-81
2022/10/12 07:32:26;;;;;;;20.03;8.83;;;;;;;14.27;nan;100146.66;4981657;28;20203;-81
2022/10/12 07:34:51;;;;;;;19.70;11.53;;;;;;;14.30;nan;100149.09;4978028;28;20226;-81
2022/10/12 07:37:17;;;;;;;23.30;10.83;;;;;;;14.33;nan;100154.16;4977611;28;20481;-81
2022/10/12 07:39:43;;;;;;;17.03;11.43;;;;;;;14.37;nan;100153.00;4974999;28;20662;-81
2022/10/12 07:42:08;;;;;;;18.90;11.33;;;;;;;14.43;nan;100145.59;4978257;28;20597;-81
2022/10/12 07:44:34;;;;;;;18.33;10.70;;;;;;;14.49;nan;100153.06;4974989;28;20214;-81
2022/10/12 07:47:00;;;;;;;15.40;9.90;;;;;;;14.54;nan;100153.63;4975098;28;20306;-81
2022/10/12 07:49:25;;;;;;;22.23;12.07;;;;;;;14.59;nan;100156.78;4974600;28;20441;-81
2022/10/12 07:51:50;;;;;;;14.90;9.27;;;;;;;14.67;nan;100156.25;4984524;28;20230;-81
2022/10/12 07:54:16;;;;;;;18.90;11.17;;;;;;;14.70;nan;100154.22;4987001;28;20198;-81
2022/10/12 07:56:41;;;;;;;21.33;11.90;;;;;;;14.71;nan;100158.53;4985300;28;20305;-81
2022/10/12 07:59:07;;;;;;;27.80;11.67;;;;;;;14.69;nan;100157.81;4983768;28;20252;-81
2022/10/12 08:01:33;;;;;;;18.20;10.50;;;;;;;14.74;nan;100160.13;4982936;28;20187;-81
2022/10/12 08:03:59;;;;;;;14.27;10.57;;;;;;;14.83;nan;100160.31;4976032;28;20199;-81
2022/10/12 08:06:28;;;;;;;14.50;9.70;;;;;;;14.96;nan;100162.91;4975191;28;20227;-81
2022/10/12 08:08:54;;;;;;;13.68;9.82;;;;;;;15.05;nan;100159.56;4976377;28;20781;-81
2022/10/12 08:11:20;;;;;;;19.03;10.30;;;;;;;15.13;nan;100156.38;4979122;28;20575;-81
2022/10/12 08:13:47;;;;;;;13.80;8.63;;;;;;;15.21;nan;100159.28;4977729;28;20247;-80
2022/10/12 08:16:15;;;;;;;11.07;7.60;;;;;;;15.31;nan;100169.19;4980694;28;20244;-81
2022/10/12 08:18:41;;;;;;;15.10;8.38;;;;;;;15.42;nan;100158.66;4978894;28;20196;-81
2022/10/12 08:21:09;;;;;;;12.27;8.37;;;;;;;15.49;nan;100159.88;4974875;28;20463;-81
2022/10/12 08:23:35;;;;;;;13.05;9.43;;;;;;;15.57;nan;100154.84;4974917;28;20461;-81
2022/10/12 08:26:02;;;;;;;11.23;9.15;;;;;;;15.62;nan;100152.69;4976297;28;20284;-80
2022/10/12 08:28:27;;;;;;;15.88;8.30;;;;;;;15.64;nan;100153.44;4975501;28;20187;-81
2022/10/12 08:30:53;;;;;;;18.30;10.33;;;;;;;15.62;nan;100162.44;4976755;28;20745;-80
2022/10/12 08:33:19;;;;;;;17.97;8.93;;;;;;;15.65;nan;100152.44;4975451;28;20185;-81
2022/10/12 08:35:46;;;;;;;10.30;6.40;;;;;;;15.76;nan;100158.78;4976256;28;20567;-80
2022/10/12 08:38:13;;;;;;;11.02;8.82;;;;;;;15.84;nan;100153.72;4977381;28;20502;-80
2022/10/12 08:41:12;;;;;;;12.90;8.52;;;;;;;15.97;nan;100151.00;4978882;28;20530;-81
2022/10/12 08:44:07;;;;;;;13.13;8.65;;;;;;;16.17;nan;100154.72;4973842;28;20190;-81
2022/10/12 08:46:33;;;;;;;18.65;9.52;;;;;;;16.38;nan;100145.91;4975408;28;20756;-80
2022/10/12 08:49:04;;;;;;;11.63;8.17;;;;;;;16.76;nan;100143.81;4976171;28;20199;-80
2022/10/12 08:51:37;;;;;;;15.57;9.40;;;;;;;17.00;nan;100141.84;4977751;28;20752;-81
2022/10/12 08:54:06;;;;;;;13.65;8.32;;;;;;;17.32;nan;100143.66;4973627;28;20260;-81
2022/10/12 08:56:34;;;;;;;18.40;9.18;;;;;;;17.71;nan;100141.28;4977534;28;20214;-81
2022/10/12 08:59:02;;;;;;;9.48;7.47;;;;;;;18.08;nan;100138.16;4977344;28;20198;-81
2022/10/12 09:01:35;;;;;;;12.77;8.10;;;;;;;18.35;nan;100137.56;4978212;28;20184;-81
2022/10/12 09:04:30;;;;;;;9.65;7.70;;;;;;;18.46;nan;100128.63;4975855;28;20216;-81
2022/10/12 09:07:14;;;;;;;9.40;6.68;;;;;;;18.43;nan;100127.09;4974859;28;20231;-80
2022/10/12 09:09:50;;;;;;;12.20;7.53;;;;;;;18.47;nan;100135.63;4980256;28;20215;-80
2022/10/12 09:12:43;;;;;;;10.93;7.63;;;;;;;18.53;nan;100133.28;4976437;28;20573;-81
2022/10/12 09:15:14;;;;;;;10.85;7.10;;;;;;;18.57;nan;100133.84;4979641;28;20269;-80
2022/10/12 09:17:52;;;;;;;7.37;6.53;;;;;;;18.54;nan;100131.47;4980199;28;20218;-80
2022/10/12 09:20:21;;;;;;;9.10;6.65;;;;;;;18.54;nan;100136.78;4980847;28;20770;-80
2022/10/12 09:22:49;;;;;;;9.43;6.63;;;;;;;18.47;nan;100130.31;4977003;28;20240;-80
2022/10/12 09:25:18;;;;;;;8.15;6.53;;;;;;;18.51;nan;100137.06;4976970;28;20225;-80
2022/10/12 09:27:45;;;;;;;11.20;8.85;;;;;;;18.59;nan;100129.25;4973648;28;20681;-81
2022/10/12 09:30:15;;;;;;;15.33;8.10;;;;;;;18.68;nan;100130.22;4976663;28;20268;-81
2022/10/12 09:33:16;;;;;;;16.77;9.73;;;;;;;18.75;nan;100132.25;4973619;28;20882;-81
2022/10/12 09:35:44;;;;;;;13.13;8.52;;;;;;;18.72;nan;100129.00;4976534;28;20274;-81
2022/10/12 09:38:09;;;;;;;17.65;9.43;;;;;;;18.72;nan;100129.00;4975778;28;20802;-82
2022/10/12 09:40:35;;;;;;;13.10;8.70;;;;;;;18.67;nan;100140.03;4977698;28;20208;-80
2022/10/12 09:43:02;;;;;;;11.90;9.10;;;;;;;18.65;nan;100133.16;4980875;28;20614;-81
2022/10/12 09:45:31;;;;;;;17.00;8.80;;;;;;;18.59;nan;100137.22;4984234;28;20225;-81
2022/10/12 09:48:15;;;;;;;8.40;7.17;;;;;;;18.57;nan;100131.19;4978533;28;20496;-81
2022/10/12 09:50:46;;;;;;;10.70;7.37;;;;;;;18.57;nan;100136.50;4981550;28;20507;-80
2022/10/12 09:53:26;;;;;;;9.87;7.03;;;;;;;18.75;nan;100137.56;4983408;28;20492;-81
2022/10/12 09:56:03;;;;;;;10.67;6.93;;;;;;;18.92;nan;100144.03;4979948;28;20876;-80
2022/10/12 09:58:29;;;;;;;16.47;7.87;;;;;;;19.07;nan;100146.31;4982309;28;20473;-80
2022/10/12 10:01:31;;;;;;;13.67;8.17;;;;;;;19.07;nan;100141.81;4980809;28;20457;-80
2022/10/12 10:04:10;;;;;;;14.93;9.37;;;;;;;19.06;nan;100134.78;4921964;29;20920;-80
2022/10/12 10:06:38;;;;;;;15.03;9.00;;;;;;;19.03;nan;100132.41;4972637;28;20966;-81
2022/10/12 10:09:04;;;;;;;11.30;7.67;;;;;;;19.02;nan;100131.56;4981470;28;20489;-80
2022/10/12 10:11:30;;;;;;;12.57;8.40;;;;;;;18.97;nan;100132.97;4983060;28;20549;-81
2022/10/12 10:13:58;;;;;;;14.67;9.70;;;;;;;18.92;nan;100141.38;4982815;28;20698;-81
2022/10/12 10:16:26;;;;;;;13.07;8.23;;;;;;;18.96;nan;100129.47;4982429;28;20950;-81
2022/10/12 10:18:52;;;;;;;11.43;7.77;;;;;;;19.03;nan;100135.06;4979516;28;20989;-81
2022/10/12 10:21:35;;;;;;;12.70;8.40;;;;;;;19.06;nan;100126.81;4980841;28;20452;-82
2022/10/12 10:24:03;;;;;;;9.90;8.13;;;;;;;19.15;nan;100133.97;4966265;28;20691;-82
2022/10/12 10:26:49;;;;;;;10.30;7.23;;;;;;;19.24;nan;100127.78;4979184;28;20474;-81
2022/10/12 10:29:28;;;;;;;9.23;7.07;;;;;;;19.32;nan;100132.41;4979808;28;20474;-81
2022/10/12 10:32:25;;;;;;;12.17;8.27;;;;;;;19.34;nan;100122.47;4979824;28;20490;-81
2022/10/12 10:35:01;;;;;;;15.83;9.97;;;;;;;19.37;nan;100121.34;4981427;28;20464;-81
2022/10/12 10:37:28;;;;;;;11.60;8.33;;;;;;;19.41;nan;100118.25;5038673;23;20847;-75
2022/10/12 10:39:56;;;;;;;13.50;9.10;;;;;;;19.47;nan;100119.53;4961938;28;21189;-75
2022/10/12 10:42:27;;;;;;;15.53;9.00;;;;;;;19.52;nan;100125.25;4974602;28;20490;-75
2022/10/12 10:45:01;;;;;;;12.77;8.27;;;;;;;19.42;nan;100125.28;4975608;28;20470;-75
2022/10/12 10:47:29;;;;;;;18.50;9.97;;;;;;;19.31;nan;100122.75;4975819;28;20475;-75
2022/10/12 10:50:00;;;;;;;15.60;9.17;;;;;;;19.31;nan;100130.75;4976259;28;20461;-75
2022/10/12 10:52:36;;;;;;;11.70;8.43;;;;;;;19.36;nan;100127.63;4975448;28;20472;-74
2022/10/12 10:55:07;;;;;;;13.63;8.43;;;;;;;19.38;nan;100123.84;4975268;28;21205;-75
2022/10/12 10:57:35;;;;;;;15.37;10.27;;;;;;;19.34;nan;100121.63;4975468;28;20584;-75
2022/10/12 11:00:14;;;;;;;16.03;9.77;;;;;;;19.26;nan;100117.00;4975871;28;20470;-75
2022/10/12 11:02:55;;;;;;;14.57;9.37;;;;;;;19.24;nan;100119.81;4975796;28;20833;-75
2022/10/12 11:05:28;;;;;;;16.80;9.13;;;;;;;19.25;nan;100117.97;4975598;28;20486;-75
2022/10/12 11:07:56;;;;;;;16.00;9.07;;;;;;;19.27;nan;100110.69;4973362;28;20475;-75
2022/10/12 11:10:32;;;;;;;15.43;10.20;;;;;;;19.31;nan;100114.78;4975733;28;20624;-75
2022/10/12 11:13:05;;;;;;;13.03;8.97;;;;;;;19.27;nan;100105.38;4976904;28;20503;-75
2022/10/12 11:15:44;;;;;;;18.43;9.80;;;;;;;19.28;nan;100106.19;4976643;28;20652;-75
2022/10/12 11:18:22;;;;;;;13.30;9.07;;;;;;;19.33;nan;100103.97;4975436;28;20815;-75
2022/10/12 11:20:51;;;;;;;14.30;8.90;;;;;;;19.43;nan;100110.13;4976079;28;20963;-75
2022/10/12 11:23:24;;;;;;;11.77;7.27;;;;;;;19.55;nan;100109.00;4977247;28;20460;-75
2022/10/12 11:26:07;;;;;;;11.73;8.30;;;;;;;19.66;nan;100100.84;4972681;28;20478;-75
2022/10/12 11:28:33;;;;;;;12.63;9.30;;;;;;;19.77;nan;100091.84;4975385;28;20469;-75
2022/10/12 11:31:00;;;;;;;12.57;8.37;;;;;;;19.92;nan;100086.88;4974686;28;20490;-75
2022/10/12 11:33:29;;;;;;;10.93;7.20;;;;;;;20.06;nan;100089.09;4977589;28;20475;-75
2022/10/12 11:35:57;;;;;;;12.00;7.77;;;;;;;20.19;nan;100090.56;4975199;28;20440;-75
2022/10/12 11:38:31;;;;;;;10.27;6.87;;;;;;;20.28;nan;100079.00;4972050;28;20464;-75
2022/10/12 11:41:09;;;;;;;13.90;7.47;;;;;;;20.34;nan;100070.41;4973772;28;20439;-75
2022/10/12 11:44:14;;;;;;;10.20;8.23;;;;;;;20.30;nan;100074.34;4977440;28;20469;-75
2022/10/12 11:46:46;;;;;;;10.67;7.30;;;;;;;20.25;nan;100077.50;4915328;29;20490;-75